Pebble, Idaho
Current Conditions -  °F | °C
As of 2:30 PM on Monday 22 Dec 2014 (Local Time) from KPIH Reporting Station
Broken Clouds Broken Clouds  
Wind Chill: 36°   Ceiling: 2900
Heat Index: 44°   Visibility: 10mi
Dew Point: 34°   Wind: 18mph
Humidity: 68%   Direction: 280°W
Pressure: 29.98"   Gusts: NA
Location:  42.811°N, 111.938°W
Report Text: KPIH 222130Z 28016KT 10SM BKN029 BKN070 BKN080 07/01 A2998 RMK AO2 T00670011
Loading
Personal Weather Stations






























Interactive Weather Map New forecast layout! Learn more

10-Day Weather Forecast

Advertisements
Track Severe Weather on mobile